createdAt,value
2017-05-27T00:01:33.137Z,17.50
2017-05-27T00:03:59.944Z,17.50
2017-05-27T00:06:26.670Z,17.30
2017-05-27T00:08:53.371Z,17.30
2017-05-27T00:11:20.092Z,17.10
2017-05-27T00:13:46.806Z,17.20
2017-05-27T00:16:13.508Z,17.10
2017-05-27T00:18:40.235Z,17.10
2017-05-27T00:21:06.923Z,17.10
2017-05-27T00:23:33.614Z,17.10
2017-05-27T00:26:00.326Z,17.00
2017-05-27T00:28:27.048Z,16.90
2017-05-27T00:30:53.751Z,16.90
2017-05-27T00:33:20.443Z,16.80
2017-05-27T00:35:47.142Z,16.80
2017-05-27T00:38:13.868Z,16.80
2017-05-27T00:40:40.565Z,16.80
2017-05-27T00:43:07.257Z,16.60
2017-05-27T00:45:34.011Z,16.60
2017-05-27T00:48:00.703Z,16.60
2017-05-27T00:50:27.411Z,16.60
2017-05-27T00:52:54.108Z,16.50
2017-05-27T00:55:20.815Z,16.40
2017-05-27T00:57:47.523Z,16.50
2017-05-27T01:00:14.213Z,16.50
2017-05-27T01:02:40.902Z,16.40
2017-05-27T01:05:07.602Z,16.30
2017-05-27T01:07:34.295Z,16.30
2017-05-27T01:10:01.020Z,16.20
2017-05-27T01:12:27.726Z,16.20
2017-05-27T01:14:54.451Z,16.10
2017-05-27T01:17:21.200Z,16.10
2017-05-27T01:19:47.896Z,16.00
2017-05-27T01:22:14.854Z,16.00
2017-05-27T01:24:41.558Z,16.00
2017-05-27T01:27:08.248Z,15.90
2017-05-27T01:29:35.101Z,15.90
2017-05-27T01:32:01.884Z,15.90
2017-05-27T01:34:28.566Z,15.90
2017-05-27T01:36:55.283Z,15.90
2017-05-27T01:39:21.975Z,15.90
2017-05-27T01:41:48.674Z,15.80
2017-05-27T01:44:15.432Z,15.80
2017-05-27T01:46:42.131Z,15.80
2017-05-27T01:49:08.868Z,15.70
2017-05-27T01:51:35.563Z,15.70
2017-05-27T01:54:02.252Z,15.60
2017-05-27T01:56:28.962Z,15.60
2017-05-27T01:58:55.659Z,15.60
2017-05-27T02:01:22.361Z,15.60
2017-05-27T02:03:49.058Z,15.60
2017-05-27T02:06:15.759Z,15.50
2017-05-27T02:08:42.483Z,15.40
2017-05-27T02:11:09.176Z,15.50
2017-05-27T02:13:35.929Z,15.40
2017-05-27T02:16:02.631Z,15.40
2017-05-27T02:18:29.435Z,15.40
2017-05-27T02:20:56.158Z,15.30
2017-05-27T02:23:22.859Z,15.30
2017-05-27T02:25:49.560Z,15.30
2017-05-27T02:28:16.279Z,15.20
2017-05-27T02:30:42.975Z,15.20
2017-05-27T02:33:09.723Z,15.20
2017-05-27T02:35:36.451Z,15.20
2017-05-27T02:38:03.279Z,15.20
2017-05-27T02:40:29.984Z,15.10
2017-05-27T02:42:56.698Z,15.10
2017-05-27T02:45:23.392Z,15.00
2017-05-27T02:47:50.110Z,15.00
2017-05-27T02:50:16.803Z,15.00
2017-05-27T02:52:43.546Z,15.00
2017-05-27T02:55:10.263Z,15.00
2017-05-27T02:57:36.951Z,14.90
2017-05-27T03:00:03.645Z,14.90
2017-05-27T03:02:30.359Z,14.80
2017-05-27T03:04:57.083Z,14.80
2017-05-27T03:07:24.020Z,14.80
2017-05-27T03:09:50.736Z,14.80
2017-05-27T03:12:17.795Z,14.80
2017-05-27T03:14:44.487Z,14.70
2017-05-27T03:17:11.210Z,14.70
2017-05-27T03:19:37.905Z,14.70
2017-05-27T03:22:04.599Z,14.70
2017-05-27T03:24:31.323Z,14.70
2017-05-27T03:26:58.030Z,14.70
2017-05-27T03:29:24.780Z,14.70
2017-05-27T03:31:51.507Z,14.70
2017-05-27T03:34:18.195Z,14.70
2017-05-27T03:36:44.891Z,14.60
2017-05-27T03:39:11.596Z,14.60
2017-05-27T03:41:38.286Z,14.70
2017-05-27T03:44:04.984Z,14.70
2017-05-27T03:46:31.715Z,14.70
2017-05-27T03:48:58.416Z,14.60
2017-05-27T03:51:25.120Z,14.60
2017-05-27T03:53:51.848Z,14.60
2017-05-27T03:56:18.543Z,14.70
2017-05-27T03:58:45.231Z,14.80
2017-05-27T04:01:11.931Z,15.10
2017-05-27T04:03:38.642Z,15.30
2017-05-27T04:06:05.374Z,15.50
2017-05-27T04:08:32.080Z,15.70
2017-05-27T04:10:58.780Z,16.00
2017-05-27T04:13:25.502Z,16.20
2017-05-27T04:15:52.215Z,16.20
2017-05-27T04:18:18.919Z,16.30
2017-05-27T04:20:45.618Z,16.50
2017-05-27T04:23:12.303Z,16.70
2017-05-27T04:25:39.026Z,16.80
2017-05-27T04:28:05.719Z,17.10
2017-05-27T04:30:32.410Z,17.30
2017-05-27T04:32:59.113Z,17.50
2017-05-27T04:35:25.808Z,17.70
2017-05-27T04:37:52.532Z,18.00
2017-05-27T04:40:19.220Z,18.20
2017-05-27T04:42:45.907Z,18.50
2017-05-27T04:45:12.668Z,18.80
2017-05-27T04:47:39.380Z,19.00
2017-05-27T04:50:06.272Z,19.00
2017-05-27T04:52:32.982Z,18.90
2017-05-27T04:54:59.679Z,19.00
2017-05-27T04:57:26.376Z,19.20
2017-05-27T04:59:53.091Z,19.40
2017-05-27T05:02:19.784Z,19.50
2017-05-27T05:04:46.495Z,19.70
2017-05-27T05:07:13.279Z,19.80
2017-05-27T05:09:40.000Z,20.10
2017-05-27T05:12:06.722Z,20.70
2017-05-27T05:14:33.475Z,21.10
2017-05-27T05:17:00.171Z,21.50
2017-05-27T05:19:26.877Z,21.80
2017-05-27T05:21:53.623Z,21.70
2017-05-27T05:24:20.333Z,21.70
2017-05-27T05:26:47.047Z,21.90
2017-05-27T05:29:13.743Z,22.50
2017-05-27T05:31:40.447Z,22.60
2017-05-27T05:34:07.216Z,23.00
2017-05-27T05:36:33.935Z,23.30
2017-05-27T05:39:00.744Z,23.30
2017-05-27T05:41:27.497Z,23.50
2017-05-27T05:43:54.210Z,23.80
2017-05-27T05:46:20.936Z,24.10
2017-05-27T05:48:47.740Z,24.50
2017-05-27T05:51:14.156Z,24.50
2017-05-27T05:53:40.907Z,24.60
2017-05-27T05:56:07.627Z,24.90
2017-05-27T05:58:33.594Z,24.80
2017-05-27T06:01:00.308Z,25.40
2017-05-27T06:03:27.032Z,25.80
2017-05-27T06:05:53.745Z,25.90
2017-05-27T06:08:20.467Z,25.80
2017-05-27T06:10:47.187Z,25.90
2017-05-27T06:13:13.896Z,25.90
2017-05-27T06:15:40.609Z,26.10
2017-05-27T06:18:07.329Z,26.40
2017-05-27T06:20:34.071Z,26.30
2017-05-27T06:23:00.789Z,25.60
2017-05-27T06:25:27.508Z,25.60
2017-05-27T06:27:54.257Z,26.30
2017-05-27T06:30:20.554Z,26.20
2017-05-27T06:32:47.259Z,27.40
2017-05-27T06:35:13.260Z,27.30
2017-05-27T06:37:39.968Z,27.30
2017-05-27T06:40:05.961Z,27.30
2017-05-27T06:42:32.679Z,27.50
2017-05-27T06:44:59.383Z,27.60
2017-05-27T06:47:26.162Z,27.80
2017-05-27T06:49:52.898Z,27.50
2017-05-27T06:52:19.615Z,27.70
2017-05-27T06:54:46.328Z,27.80
2017-05-27T06:57:13.044Z,27.70
2017-05-27T06:59:39.785Z,27.80
2017-05-27T07:02:06.495Z,28.10
2017-05-27T07:04:33.227Z,28.50
2017-05-27T07:06:59.935Z,29.20
2017-05-27T07:09:26.628Z,29.40
2017-05-27T07:11:53.335Z,29.30
2017-05-27T07:14:20.079Z,28.60
2017-05-27T07:16:46.872Z,28.80
2017-05-27T07:19:13.587Z,29.00
2017-05-27T07:21:40.322Z,29.30
2017-05-27T07:24:07.042Z,29.20
2017-05-27T07:26:33.758Z,29.00
2017-05-27T07:29:00.498Z,28.60
2017-05-27T07:31:27.225Z,28.20
2017-05-27T07:33:53.955Z,28.30
2017-05-27T07:36:20.667Z,28.70
2017-05-27T07:38:46.636Z,28.60
2017-05-27T07:41:13.376Z,29.20
2017-05-27T07:43:40.109Z,29.20
2017-05-27T07:46:06.933Z,29.30
2017-05-27T07:48:33.692Z,29.60
2017-05-27T07:51:01.341Z,29.40
2017-05-27T07:53:28.100Z,29.20
2017-05-27T07:55:54.817Z,29.40
2017-05-27T07:58:21.535Z,29.70
2017-05-27T08:00:47.558Z,29.70
2017-05-27T08:03:14.301Z,29.90
2017-05-27T08:05:41.042Z,29.80
2017-05-27T08:08:07.748Z,30.10
2017-05-27T08:10:34.464Z,30.20
2017-05-27T08:13:01.171Z,30.60
2017-05-27T08:15:27.892Z,30.90
2017-05-27T08:17:54.649Z,30.80
2017-05-27T08:20:20.608Z,30.70
2017-05-27T08:22:47.327Z,30.20
2017-05-27T08:25:14.036Z,30.70
2017-05-27T08:27:40.719Z,30.60
2017-05-27T08:30:07.522Z,30.20
2017-05-27T08:32:40.419Z,30.40
2017-05-27T08:35:07.136Z,30.60
2017-05-27T08:37:33.856Z,30.50
2017-05-27T08:39:59.813Z,30.50
2017-05-27T08:42:26.554Z,30.50
2017-05-27T08:44:53.865Z,29.90
2017-05-27T08:47:20.574Z,29.60
2017-05-27T08:49:47.651Z,30.00
2017-05-27T08:52:14.355Z,30.00
2017-05-27T08:54:41.085Z,30.30
2017-05-27T08:57:07.783Z,31.00
2017-05-27T08:59:34.504Z,30.90
2017-05-27T09:02:00.513Z,30.80
2017-05-27T09:04:27.282Z,30.40
2017-05-27T09:06:54.017Z,30.50
2017-05-27T09:09:20.729Z,30.60
2017-05-27T09:11:47.706Z,30.90
2017-05-27T09:14:17.257Z,30.80
2017-05-27T09:16:44.168Z,31.40
2017-05-27T09:19:11.271Z,31.30
2017-05-27T09:21:37.970Z,31.30
2017-05-27T09:24:04.659Z,31.10
2017-05-27T09:26:31.367Z,31.40
2017-05-27T09:28:57.316Z,31.40
2017-05-27T09:31:24.035Z,31.40
2017-05-27T09:33:50.727Z,31.10
2017-05-27T09:36:17.427Z,31.50
2017-05-27T09:38:44.511Z,32.20
2017-05-27T09:41:11.191Z,32.40
2017-05-27T09:43:37.882Z,32.20
2017-05-27T09:46:04.663Z,31.70
2017-05-27T09:48:31.356Z,31.40
2017-05-27T09:50:58.102Z,31.40
2017-05-27T09:53:24.817Z,32.00
2017-05-27T09:55:51.513Z,32.00
2017-05-27T09:58:18.226Z,31.80
2017-05-27T10:00:44.935Z,31.30
2017-05-27T10:03:11.641Z,31.20
2017-05-27T10:05:38.334Z,31.20
2017-05-27T10:08:05.023Z,30.50
2017-05-27T10:10:31.719Z,30.30
2017-05-27T10:12:58.438Z,30.00
2017-05-27T10:15:25.123Z,29.50
2017-05-27T10:17:51.123Z,29.50
2017-05-27T10:20:17.822Z,29.20
2017-05-27T10:22:44.514Z,29.40
2017-05-27T10:25:11.239Z,29.50
2017-05-27T10:27:37.996Z,29.30
2017-05-27T10:30:04.717Z,29.10
2017-05-27T10:32:30.674Z,29.10
2017-05-27T10:34:57.369Z,29.20
2017-05-27T10:37:24.080Z,29.60
2017-05-27T10:39:50.785Z,29.80
2017-05-27T10:42:17.611Z,29.30
2017-05-27T10:44:44.355Z,29.40
2017-05-27T10:47:11.059Z,29.40
2017-05-27T10:49:37.780Z,29.80
2017-05-27T10:52:04.543Z,30.20
2017-05-27T10:54:31.244Z,30.10
2017-05-27T10:56:57.946Z,30.10
2017-05-27T10:59:24.690Z,30.20
2017-05-27T11:01:50.649Z,30.20
2017-05-27T11:04:17.336Z,30.20
2017-05-27T11:06:44.040Z,30.00
2017-05-27T11:09:10.766Z,30.20
2017-05-27T11:11:37.518Z,30.10
2017-05-27T11:14:04.224Z,30.30
2017-05-27T11:16:30.936Z,30.10
2017-05-27T11:18:57.675Z,29.90
2017-05-27T11:21:23.661Z,29.90
2017-05-27T11:23:50.391Z,29.70
2017-05-27T11:26:17.091Z,30.00
2017-05-27T11:28:43.079Z,30.00
2017-05-27T11:31:09.835Z,30.70
2017-05-27T11:33:36.607Z,30.50
2017-05-27T11:36:03.352Z,30.50
2017-05-27T11:38:30.081Z,30.40
2017-05-27T11:40:56.802Z,30.10
2017-05-27T11:43:23.543Z,30.30
2017-05-27T11:45:50.241Z,30.60
2017-05-27T11:48:16.980Z,30.60
2017-05-27T11:50:43.694Z,30.40
2017-05-27T11:53:10.387Z,30.30
2017-05-27T11:55:37.092Z,30.30
2017-05-27T11:58:03.852Z,30.50
2017-05-27T12:00:30.574Z,30.50
2017-05-27T12:02:57.264Z,30.40
2017-05-27T12:05:24.014Z,30.70
2017-05-27T12:07:50.706Z,30.80
2017-05-27T12:10:17.391Z,30.70
2017-05-27T12:12:44.124Z,30.80
2017-05-27T12:15:10.816Z,31.00
2017-05-27T12:17:37.522Z,30.80
2017-05-27T12:20:04.227Z,30.70
2017-05-27T12:22:30.935Z,30.80
2017-05-27T12:24:57.647Z,30.70
2017-05-27T12:27:24.330Z,30.60
2017-05-27T12:29:51.025Z,30.60
2017-05-27T12:32:17.748Z,30.60
2017-05-27T12:34:44.462Z,30.30
2017-05-27T12:37:11.171Z,30.50
2017-05-27T12:39:37.905Z,30.80
2017-05-27T12:42:04.663Z,30.70
2017-05-27T12:44:31.367Z,30.80
2017-05-27T12:46:58.083Z,30.60
2017-05-27T12:49:24.779Z,30.70
2017-05-27T12:51:51.495Z,30.60
2017-05-27T12:54:18.223Z,30.60
2017-05-27T12:56:44.969Z,30.50
2017-05-27T12:59:11.699Z,30.50
2017-05-27T13:01:38.442Z,30.60
2017-05-27T13:04:05.138Z,30.20
2017-05-27T13:06:31.847Z,30.10
2017-05-27T13:08:58.555Z,29.90
2017-05-27T13:11:25.260Z,29.90
2017-05-27T13:13:52.071Z,29.80
2017-05-27T13:16:18.826Z,29.80
2017-05-27T13:18:45.536Z,29.80
2017-05-27T13:21:11.506Z,29.80
2017-05-27T13:23:38.207Z,29.80
2017-05-27T13:26:04.919Z,29.40
2017-05-27T13:28:31.650Z,29.40
2017-05-27T13:30:58.367Z,29.50
2017-05-27T13:33:25.090Z,29.70
2017-05-27T13:35:51.819Z,29.70
2017-05-27T13:38:18.563Z,29.80
2017-05-27T13:40:44.532Z,29.80
2017-05-27T13:43:11.267Z,29.90
2017-05-27T13:45:37.963Z,29.90
2017-05-27T13:48:04.664Z,29.90
2017-05-27T13:50:31.404Z,29.70
2017-05-27T13:52:58.330Z,29.50
2017-05-27T13:55:25.045Z,29.30
2017-05-27T13:57:51.024Z,29.30
2017-05-27T14:00:17.772Z,29.40
2017-05-27T14:02:44.482Z,29.50
2017-05-27T14:05:11.298Z,29.50
2017-05-27T14:07:38.140Z,29.50
2017-05-27T14:10:04.835Z,29.50
2017-05-27T14:12:31.527Z,29.50
2017-05-27T14:14:57.483Z,29.40
2017-05-27T14:17:24.241Z,29.20
2017-05-27T14:19:50.931Z,29.20
2017-05-27T14:22:17.643Z,29.50
2017-05-27T14:24:44.364Z,29.60
2017-05-27T14:27:11.082Z,29.60
2017-05-27T14:29:37.782Z,29.50
2017-05-27T14:32:04.503Z,29.50
2017-05-27T14:34:30.455Z,29.50
2017-05-27T14:36:57.148Z,29.40
2017-05-27T14:39:23.861Z,29.50
2017-05-27T14:41:50.611Z,29.60
2017-05-27T14:44:17.322Z,29.70
2017-05-27T14:46:43.281Z,29.70
2017-05-27T14:49:09.251Z,29.70
2017-05-27T14:51:35.959Z,29.50
2017-05-27T14:54:02.668Z,29.50
2017-05-27T14:56:29.379Z,29.50
2017-05-27T14:58:55.500Z,29.50
2017-05-27T15:01:22.211Z,29.30
2017-05-27T15:03:48.891Z,29.30
2017-05-27T15:06:15.594Z,29.30
2017-05-27T15:08:42.287Z,29.40
2017-05-27T15:11:09.008Z,29.40
2017-05-27T15:13:35.691Z,29.30
2017-05-27T15:16:02.386Z,29.30
2017-05-27T15:18:29.080Z,29.10
2017-05-27T15:20:55.767Z,29.10
2017-05-27T15:23:22.706Z,29.20
2017-05-27T15:25:49.424Z,29.30
2017-05-27T15:28:16.120Z,29.30
2017-05-27T15:30:42.831Z,29.20
2017-05-27T15:33:09.542Z,29.20
2017-05-27T15:35:36.226Z,29.30
2017-05-27T15:38:02.912Z,29.30
2017-05-27T15:40:29.620Z,29.20
2017-05-27T15:42:56.340Z,29.10
2017-05-27T15:45:23.031Z,29.10
2017-05-27T15:47:49.753Z,29.10
2017-05-27T15:50:16.470Z,29.00
2017-05-27T15:52:43.159Z,29.00
2017-05-27T15:55:09.842Z,29.00
2017-05-27T15:57:36.538Z,29.00
2017-05-27T16:00:03.247Z,29.10
2017-05-27T16:02:29.951Z,29.10
2017-05-27T16:04:56.639Z,28.90
2017-05-27T16:07:23.329Z,28.90
2017-05-27T16:09:50.047Z,28.90
2017-05-27T16:12:16.727Z,28.90
2017-05-27T16:14:43.416Z,28.80
2017-05-27T16:17:10.116Z,28.70
2017-05-27T16:19:36.824Z,28.70
2017-05-27T16:22:03.532Z,28.70
2017-05-27T16:24:30.219Z,28.70
2017-05-27T16:26:56.181Z,28.60
2017-05-27T16:29:22.909Z,28.70
2017-05-27T16:31:49.598Z,28.80
2017-05-27T16:34:15.550Z,28.70
2017-05-27T16:36:42.251Z,28.80
2017-05-27T16:39:08.954Z,28.70
2017-05-27T16:41:35.644Z,28.60
2017-05-27T16:44:02.473Z,28.60
2017-05-27T16:46:29.191Z,28.50
2017-05-27T16:48:55.905Z,28.60
2017-05-27T16:51:22.611Z,28.50
2017-05-27T16:53:49.530Z,28.50
2017-05-27T16:56:16.294Z,28.50
2017-05-27T16:58:42.290Z,28.40
2017-05-27T17:01:09.253Z,28.40
2017-05-27T17:03:35.354Z,28.40
2017-05-27T17:06:02.142Z,28.30
2017-05-27T17:08:28.933Z,28.40
2017-05-27T17:10:55.001Z,28.30
2017-05-27T17:13:21.750Z,28.20
2017-05-27T17:15:47.754Z,28.20
2017-05-27T17:18:14.536Z,28.10
2017-05-27T17:20:40.567Z,28.10
2017-05-27T17:23:07.355Z,28.00
2017-05-27T17:25:35.690Z,27.90
2017-05-27T17:28:02.262Z,28.00
2017-05-27T17:30:29.500Z,27.90
2017-05-27T17:32:56.355Z,27.80
2017-05-27T17:35:22.305Z,27.80
2017-05-27T17:37:49.027Z,27.80
2017-05-27T17:40:15.710Z,27.70
2017-05-27T17:42:42.397Z,27.70
2017-05-27T17:45:09.087Z,27.70
2017-05-27T17:47:35.773Z,27.60
2017-05-27T17:50:02.503Z,27.50
2017-05-27T17:52:29.221Z,27.50
2017-05-27T17:54:55.912Z,27.50
2017-05-27T17:57:22.602Z,27.40
2017-05-27T17:59:49.283Z,27.40
2017-05-27T18:02:15.974Z,27.40
2017-05-27T18:04:42.658Z,27.30
2017-05-27T18:07:09.350Z,27.20
2017-05-27T18:09:36.031Z,27.10
2017-05-27T18:12:02.742Z,27.10
2017-05-27T18:14:29.418Z,27.00
2017-05-27T18:16:56.103Z,26.90
2017-05-27T18:19:22.798Z,26.90
2017-05-27T18:21:49.499Z,26.80
2017-05-27T18:24:15.507Z,26.80
2017-05-27T18:26:42.190Z,26.60
2017-05-27T18:29:08.910Z,26.60
2017-05-27T18:31:35.627Z,26.50
2017-05-27T18:34:02.346Z,26.40
2017-05-27T18:36:29.038Z,26.30
2017-05-27T18:38:55.740Z,26.30
2017-05-27T18:41:22.431Z,26.30
2017-05-27T18:43:49.158Z,26.20
2017-05-27T18:46:15.959Z,26.10
2017-05-27T18:48:42.733Z,26.10
2017-05-27T18:51:09.460Z,26.00
2017-05-27T18:53:36.154Z,25.90
2017-05-27T18:56:02.859Z,25.90
2017-05-27T18:58:29.551Z,25.90
2017-05-27T19:00:56.279Z,25.70
2017-05-27T19:03:22.988Z,25.70
2017-05-27T19:05:49.736Z,25.50
2017-05-27T19:08:16.439Z,25.50
2017-05-27T19:10:43.155Z,25.40
2017-05-27T19:13:09.858Z,25.30
2017-05-27T19:15:36.613Z,25.20
2017-05-27T19:18:03.422Z,25.20
2017-05-27T19:20:29.515Z,25.10
2017-05-27T19:22:55.466Z,25.10
2017-05-27T19:25:22.179Z,24.90
2017-05-27T19:27:48.890Z,24.70
2017-05-27T19:30:15.603Z,24.60
2017-05-27T19:32:41.550Z,24.60
2017-05-27T19:35:08.263Z,24.50
2017-05-27T19:37:35.061Z,24.40
2017-05-27T19:40:01.865Z,24.30
2017-05-27T19:42:28.556Z,24.20
2017-05-27T19:44:55.259Z,24.10
2017-05-27T19:47:21.957Z,24.00
2017-05-27T19:49:48.812Z,23.90
2017-05-27T19:52:15.658Z,23.90
2017-05-27T19:54:42.382Z,23.80
2017-05-27T19:57:09.079Z,23.70
2017-05-27T19:59:35.819Z,23.60
2017-05-27T20:02:02.527Z,23.60
2017-05-27T20:04:29.251Z,23.50
2017-05-27T20:06:55.950Z,23.40
2017-05-27T20:09:22.660Z,23.30
2017-05-27T20:11:49.379Z,23.30
2017-05-27T20:14:16.080Z,23.20
2017-05-27T20:16:42.783Z,23.10
2017-05-27T20:19:09.495Z,23.00
2017-05-27T20:21:36.187Z,23.00
2017-05-27T20:24:02.908Z,22.90
2017-05-27T20:26:29.600Z,22.90
2017-05-27T20:28:55.552Z,22.90
2017-05-27T20:31:21.516Z,22.80
2017-05-27T20:33:48.224Z,22.70
2017-05-27T20:36:14.973Z,22.70
2017-05-27T20:38:42.747Z,22.60
2017-05-27T20:41:09.540Z,22.50
2017-05-27T20:43:36.252Z,22.50
2017-05-27T20:46:02.972Z,22.50
2017-05-27T20:48:29.692Z,22.40
2017-05-27T20:50:56.395Z,22.40
2017-05-27T20:53:23.172Z,22.30
2017-05-27T20:55:49.998Z,22.20
2017-05-27T20:58:16.748Z,22.20
2017-05-27T21:00:43.480Z,22.30
2017-05-27T21:03:09.451Z,22.20
2017-05-27T21:05:36.162Z,22.10
2017-05-27T21:08:02.896Z,22.00
2017-05-27T21:10:28.866Z,22.00
2017-05-27T21:12:55.592Z,21.90
2017-05-27T21:15:22.307Z,21.80
2017-05-27T21:17:49.015Z,21.80
2017-05-27T21:20:15.891Z,21.70
2017-05-27T21:22:42.637Z,21.70
2017-05-27T21:25:09.342Z,21.60
2017-05-27T21:27:36.035Z,21.50
2017-05-27T21:30:02.800Z,21.50
2017-05-27T21:32:29.593Z,21.40
2017-05-27T21:34:56.373Z,21.40
2017-05-27T21:37:23.085Z,21.40
2017-05-27T21:39:49.787Z,21.40
2017-05-27T21:42:16.469Z,21.30
2017-05-27T21:44:43.180Z,21.20
2017-05-27T21:47:09.888Z,21.20
2017-05-27T21:49:36.627Z,21.10
2017-05-27T21:52:03.413Z,21.10
2017-05-27T21:54:30.136Z,21.10
2017-05-27T21:56:56.823Z,21.00
2017-05-27T21:59:23.923Z,21.00
2017-05-27T22:01:50.754Z,21.00
2017-05-27T22:04:17.487Z,21.00
2017-05-27T22:06:44.275Z,21.00
2017-05-27T22:09:11.012Z,21.10
2017-05-27T22:11:37.699Z,21.00
2017-05-27T22:14:04.424Z,21.00
2017-05-27T22:16:31.122Z,21.00
2017-05-27T22:18:57.807Z,20.90
2017-05-27T22:21:24.535Z,20.90
2017-05-27T22:23:51.372Z,20.90
2017-05-27T22:26:18.058Z,20.80
2017-05-27T22:28:44.746Z,20.70
2017-05-27T22:31:11.439Z,20.60
2017-05-27T22:33:38.183Z,20.50
2017-05-27T22:36:04.871Z,20.40
2017-05-27T22:38:31.551Z,20.40
2017-05-27T22:40:58.247Z,20.40
2017-05-27T22:43:25.172Z,20.40
2017-05-27T22:45:51.876Z,20.40
2017-05-27T22:48:18.567Z,20.30
2017-05-27T22:50:45.391Z,20.30
2017-05-27T22:53:12.078Z,20.30
2017-05-27T22:55:38.771Z,20.30
2017-05-27T22:58:05.585Z,20.30
2017-05-27T23:00:32.275Z,20.20
2017-05-27T23:02:58.974Z,20.30
2017-05-27T23:05:25.683Z,20.30
2017-05-27T23:07:52.380Z,20.20
2017-05-27T23:10:18.355Z,20.20
2017-05-27T23:12:45.254Z,20.10
2017-05-27T23:15:11.944Z,20.00
2017-05-27T23:17:38.631Z,20.00
2017-05-27T23:20:05.384Z,20.00
2017-05-27T23:22:32.099Z,19.90
2017-05-27T23:24:58.807Z,19.90
2017-05-27T23:27:25.506Z,19.80
2017-05-27T23:29:52.203Z,19.80
2017-05-27T23:32:18.891Z,19.80
2017-05-27T23:34:45.579Z,19.80
2017-05-27T23:37:12.271Z,19.80
2017-05-27T23:39:38.954Z,19.80
2017-05-27T23:42:05.939Z,19.80
2017-05-27T23:44:32.632Z,19.80
2017-05-27T23:46:59.349Z,19.70
2017-05-27T23:49:26.096Z,19.70
2017-05-27T23:51:52.791Z,19.70
2017-05-27T23:54:19.515Z,19.70
2017-05-27T23:56:46.242Z,19.70
2017-05-27T23:59:12.942Z,19.60
